Time;durP1;ratioP1;P1;durP2;ratioP2;P2;SDS_P1;SDS_P2;PMS_P1;PMS_P2;Temp;Humidity;BMP_temperature;BMP_pressure;BME280_temperature;BME280_humidity;BME280_pressure;Samples;Min_cycle;Max_cycle;Signal;HPM_P1;HPM_P2
2023/09/02 00:01:15;;;;;;;6.68;1.60;;;;;;;14.36;82.85;100319.84;5127262;28;20019;-61
2023/09/02 00:03:40;;;;;;;4.55;1.85;;;;;;;14.40;83.41;100323.25;5127351;28;20020;-61
2023/09/02 00:06:05;;;;;;;2.22;1.45;;;;;;;14.42;83.04;100321.47;5127350;28;20043;-62
2023/09/02 00:08:31;;;;;;;2.97;1.92;;;;;;;14.43;83.49;100314.47;5127315;28;20376;-61
2023/09/02 00:10:56;;;;;;;1.92;1.15;;;;;;;14.46;84.26;100314.38;5125411;28;20036;-62
2023/09/02 00:13:22;;;;;;;1.88;1.40;;;;;;;14.47;84.29;100318.72;5127150;28;20016;-62
2023/09/02 00:15:47;;;;;;;2.35;1.55;;;;;;;14.52;84.22;100324.66;5126765;27;20020;-60
2023/09/02 00:18:12;;;;;;;2.03;1.52;;;;;;;14.49;84.46;100316.91;5125767;28;20049;-61
2023/09/02 00:20:37;;;;;;;2.15;1.42;;;;;;;14.38;84.41;100312.84;5126876;28;20024;-61
2023/09/02 00:23:03;;;;;;;1.23;1.10;;;;;;;14.51;84.79;100320.34;5126743;28;20016;-61
2023/09/02 00:25:31;;;;;;;2.53;1.20;;;;;;;14.46;84.79;100317.00;5126686;28;20456;-61
2023/09/02 00:27:56;;;;;;;2.67;1.25;;;;;;;14.52;84.46;100327.28;5126745;28;20315;-61
2023/09/02 00:30:22;;;;;;;3.15;1.42;;;;;;;14.53;84.92;100326.41;5126504;28;20561;-61
2023/09/02 00:32:47;;;;;;;1.65;1.17;;;;;;;14.45;84.99;100316.16;5126852;28;20024;-61
2023/09/02 00:35:12;;;;;;;1.35;1.02;;;;;;;14.46;85.12;100311.75;5126711;28;20084;-61
2023/09/02 00:37:38;;;;;;;1.15;0.93;;;;;;;14.53;85.08;100323.78;5126484;27;20024;-61
2023/09/02 00:40:05;;;;;;;5.68;1.92;;;;;;;14.53;85.23;100323.78;5126375;28;20024;-61
2023/09/02 00:42:33;;;;;;;2.25;1.27;;;;;;;14.56;84.86;100323.69;5126648;28;20027;-61
2023/09/02 00:44:59;;;;;;;4.85;1.52;;;;;;;14.57;84.79;100322.78;5126396;28;20026;-61
2023/09/02 00:47:25;;;;;;;2.10;1.60;;;;;;;14.45;84.94;100303.09;5126500;28;20028;-62
2023/09/02 00:49:50;;;;;;;0.88;0.85;;;;;;;14.59;84.69;100327.97;5126490;28;20026;-62
2023/09/02 00:52:18;;;;;;;1.80;1.10;;;;;;;14.55;85.41;100316.78;5126200;28;20074;-62
2023/09/02 00:54:43;;;;;;;1.63;1.33;;;;;;;14.60;85.05;100324.50;5125994;27;20038;-61
2023/09/02 00:57:09;;;;;;;1.55;1.10;;;;;;;14.58;85.23;100324.53;5125070;28;20016;-62
2023/09/02 00:59:35;;;;;;;2.33;1.85;;;;;;;14.59;85.41;100322.75;5125824;28;20031;-61
2023/09/02 01:02:02;;;;;;;1.77;1.17;;;;;;;14.61;85.47;100326.19;5125879;28;20027;-61
2023/09/02 01:04:27;;;;;;;3.55;1.67;;;;;;;14.60;85.51;100329.72;5126314;28;20072;-61
2023/09/02 01:06:55;;;;;;;5.25;1.75;;;;;;;14.63;85.22;100334.84;5126281;28;20093;-62
2023/09/02 01:09:21;;;;;;;1.45;1.20;;;;;;;14.63;85.38;100333.06;5126230;28;20091;-62
2023/09/02 01:11:46;;;;;;;2.33;1.17;;;;;;;14.62;85.94;100336.59;5125789;28;20050;-62
2023/09/02 01:14:13;;;;;;;4.00;1.45;;;;;;;14.62;85.99;100335.72;5125910;28;20026;-61
2023/09/02 01:16:38;;;;;;;1.85;1.48;;;;;;;14.62;86.49;100330.50;5125684;28;20058;-62
2023/09/02 01:19:08;;;;;;;1.52;1.27;;;;;;;14.63;86.71;100335.69;5125771;28;20383;-61
2023/09/02 01:21:39;;;;;;;4.57;1.42;;;;;;;14.71;86.20;100340.72;5125416;28;20035;-62
2023/09/02 01:24:37;;;;;;;1.95;1.45;;;;;;;14.70;86.92;100340.75;5125800;28;20406;-62
2023/09/02 01:27:16;;;;;;;7.88;1.80;;;;;;;14.71;86.90;100347.72;5122368;28;20039;-62
2023/09/02 01:29:55;;;;;;;2.67;1.50;;;;;;;14.71;87.52;100345.09;5125697;28;20027;-62
2023/09/02 01:32:26;;;;;;;2.42;1.67;;;;;;;14.70;87.06;100336.38;5125366;28;20078;-61
2023/09/02 01:34:54;;;;;;;3.72;1.40;;;;;;;14.71;87.55;100348.53;5125755;28;20031;-61
2023/09/02 01:37:22;;;;;;;1.58;1.20;;;;;;;14.72;87.71;100347.66;5125866;28;20028;-61
2023/09/02 01:39:50;;;;;;;5.13;1.92;;;;;;;14.75;87.13;100337.13;5125305;28;20040;-60
2023/09/02 01:42:18;;;;;;;0.93;0.80;;;;;;;14.73;87.81;100330.22;5125676;28;20047;-62
2023/09/02 01:44:44;;;;;;;2.50;1.50;;;;;;;14.75;87.88;100344.09;5125322;28;20027;-62
2023/09/02 01:47:11;;;;;;;2.20;1.45;;;;;;;14.72;87.93;100338.97;5125298;28;20023;-62
2023/09/02 01:49:37;;;;;;;2.15;1.50;;;;;;;14.67;87.86;100338.22;5125749;28;20015;-61
2023/09/02 01:52:04;;;;;;;3.15;1.85;;;;;;;14.68;88.19;100351.25;5124271;28;20034;-61
2023/09/02 01:54:30;;;;;;;2.47;1.50;;;;;;;14.63;88.55;100351.38;5125475;28;20024;-61
2023/09/02 01:56:56;;;;;;;4.10;1.92;;;;;;;14.61;88.64;100347.97;5125497;28;20051;-61
2023/09/02 01:59:21;;;;;;;1.60;1.30;;;;;;;14.58;88.25;100348.03;5125044;28;20034;-61
2023/09/02 02:01:47;;;;;;;2.65;1.58;;;;;;;14.59;88.25;100351.50;5125104;28;20057;-61
2023/09/02 02:04:30;;;;;;;2.33;1.60;;;;;;;14.59;88.86;100357.59;5125316;28;20020;-62
2023/09/02 02:07:00;;;;;;;3.22;1.83;;;;;;;14.53;88.71;100347.28;5125391;28;20031;-61
2023/09/02 02:09:53;;;;;;;2.45;1.63;;;;;;;14.58;89.14;100355.00;5123778;28;20015;-62
2023/09/02 02:12:20;;;;;;;3.55;2.08;;;;;;;14.56;88.87;100352.44;5124502;28;20038;-62
2023/09/02 02:14:45;;;;;;;3.13;1.73;;;;;;;14.46;89.20;100345.72;5124013;28;20111;-62
2023/09/02 02:17:11;;;;;;;2.05;1.60;;;;;;;14.52;89.04;100357.78;5125086;28;20026;-63
2023/09/02 02:19:37;;;;;;;1.65;1.33;;;;;;;14.48;89.09;100350.03;5123820;28;20464;-62
2023/09/02 02:22:02;;;;;;;3.60;1.50;;;;;;;14.52;89.14;100352.56;5125085;28;20057;-62
2023/09/02 02:24:27;;;;;;;5.20;1.80;;;;;;;14.49;88.75;100351.72;5125325;28;20016;-62
2023/09/02 02:26:53;;;;;;;2.38;1.83;;;;;;;14.47;89.04;100350.91;5125140;28;20023;-62
2023/09/02 02:29:18;;;;;;;2.40;1.73;;;;;;;14.53;88.61;100354.25;5125077;28;20023;-62
2023/09/02 02:31:44;;;;;;;2.42;1.73;;;;;;;14.49;89.02;100356.09;5124895;28;20042;-62
2023/09/02 02:34:09;;;;;;;3.42;2.30;;;;;;;14.38;89.29;100336.34;5126629;28;20023;-62
2023/09/02 02:36:35;;;;;;;2.35;1.40;;;;;;;14.54;89.02;100354.22;5129046;28;20023;-62
2023/09/02 02:39:00;;;;;;;1.92;1.52;;;;;;;14.52;89.81;100358.63;5128782;28;20048;-62
2023/09/02 02:41:26;;;;;;;2.67;2.00;;;;;;;14.50;89.75;100348.22;5128657;28;20051;-62
2023/09/02 02:43:51;;;;;;;2.97;2.10;;;;;;;14.54;89.79;100351.59;5128735;28;20027;-62
2023/09/02 02:46:17;;;;;;;2.50;2.13;;;;;;;14.60;89.09;100363.66;5128887;28;20019;-62
2023/09/02 02:48:42;;;;;;;3.05;1.92;;;;;;;14.55;88.43;100355.09;5128817;28;20024;-62
2023/09/02 02:51:07;;;;;;;3.42;2.20;;;;;;;14.50;87.93;100356.03;5128724;28;20019;-62
2023/09/02 02:53:34;;;;;;;4.38;2.40;;;;;;;14.50;87.75;100358.66;5128896;28;20019;-61
2023/09/02 02:56:02;;;;;;;2.15;1.95;;;;;;;14.44;87.80;100358.81;5128880;28;20024;-62
2023/09/02 02:58:28;;;;;;;3.53;1.60;;;;;;;14.33;87.41;100353.03;5128788;28;20027;-62
2023/09/02 03:01:04;;;;;;;5.15;2.42;;;;;;;14.41;88.03;100363.28;5128470;28;20015;-61
2023/09/02 03:03:30;;;;;;;4.07;2.38;;;;;;;14.40;87.84;100357.19;5128651;28;20432;-62
2023/09/02 03:05:55;;;;;;;7.03;2.20;;;;;;;14.49;88.46;100361.31;5128641;28;20024;-63
2023/09/02 03:08:21;;;;;;;2.95;2.60;;;;;;;14.55;88.62;100365.53;5128803;28;20055;-62
2023/09/02 03:10:54;;;;;;;7.45;2.58;;;;;;;14.57;88.60;100366.38;5128365;28;20024;-62
2023/09/02 03:13:19;;;;;;;5.00;2.42;;;;;;;14.59;89.26;100367.16;5127024;28;20024;-62
2023/09/02 03:15:49;;;;;;;4.50;2.50;;;;;;;14.62;89.56;100370.56;5128249;28;20027;-61
2023/09/02 03:18:14;;;;;;;4.07;2.55;;;;;;;14.63;89.03;100372.25;5128326;28;20023;-62
2023/09/02 03:20:40;;;;;;;3.17;2.40;;;;;;;14.66;89.17;100362.63;5126816;28;20490;-62
2023/09/02 03:23:05;;;;;;;2.25;1.90;;;;;;;14.65;88.99;100369.63;5128479;28;20035;-62
2023/09/02 03:25:31;;;;;;;3.13;2.10;;;;;;;14.67;89.32;100377.41;5128215;28;20080;-62
2023/09/02 03:27:57;;;;;;;4.80;2.53;;;;;;;14.61;89.77;100368.00;5128171;28;20031;-62
2023/09/02 03:30:22;;;;;;;5.43;2.97;;;;;;;14.63;89.93;100369.66;5127656;28;20027;-61
2023/09/02 03:32:50;;;;;;;4.88;2.88;;;;;;;14.62;89.83;100365.34;5126671;28;20020;-62
2023/09/02 03:35:15;;;;;;;12.70;3.25;;;;;;;14.62;90.39;100365.34;5127712;28;20107;-61
2023/09/02 03:37:43;;;;;;;2.40;2.20;;;;;;;14.63;90.17;100367.03;5127592;28;20023;-62
2023/09/02 03:40:08;;;;;;;3.50;2.38;;;;;;;14.64;90.65;100378.34;5127669;28;20038;-62
2023/09/02 03:42:34;;;;;;;4.53;2.45;;;;;;;14.62;90.62;100370.56;5127818;28;20078;-62
2023/09/02 03:44:59;;;;;;;7.60;3.20;;;;;;;14.62;91.07;100375.78;5126884;28;20473;-62
2023/09/02 03:47:29;;;;;;;4.07;2.30;;;;;;;14.63;91.71;100377.50;5127491;28;20019;-62
2023/09/02 03:49:55;;;;;;;9.10;2.83;;;;;;;14.67;91.44;100369.56;5127734;28;20364;-62
2023/09/02 03:52:20;;;;;;;4.35;2.65;;;;;;;14.72;91.34;100376.41;5127639;28;20034;-62
2023/09/02 03:54:45;;;;;;;7.70;2.40;;;;;;;14.75;91.85;100375.47;5127544;28;20031;-62
2023/09/02 03:57:11;;;;;;;4.35;2.60;;;;;;;14.77;92.01;100381.50;5126130;28;20076;-62
2023/09/02 03:59:36;;;;;;;2.78;2.05;;;;;;;14.77;92.47;100378.91;5127378;28;20028;-61
2023/09/02 04:02:02;;;;;;;3.15;2.47;;;;;;;14.71;92.72;100360.78;5127507;27;20024;-62
2023/09/02 04:04:27;;;;;;;9.65;2.63;;;;;;;14.79;92.42;100371.88;5127525;28;20512;-61
2023/09/02 04:06:52;;;;;;;3.72;2.42;;;;;;;14.79;93.24;100371.03;5127452;28;20034;-62
2023/09/02 04:09:17;;;;;;;3.60;2.05;;;;;;;14.78;93.26;100374.50;5127634;28;20456;-62
2023/09/02 04:11:43;;;;;;;4.50;2.83;;;;;;;14.75;93.53;100376.31;5127272;27;20027;-62
2023/09/02 04:14:08;;;;;;;3.80;2.33;;;;;;;14.76;93.82;100379.78;5127282;28;20023;-61
2023/09/02 04:16:34;;;;;;;4.13;1.75;;;;;;;14.77;94.21;100384.13;5127163;28;20026;-62
2023/09/02 04:19:02;;;;;;;6.63;2.55;;;;;;;14.75;93.90;100386.78;5127249;28;20483;-62
2023/09/02 04:21:31;;;;;;;3.13;2.30;;;;;;;14.79;93.88;100384.97;5127203;28;20032;-62
2023/09/02 04:23:56;;;;;;;2.15;1.80;;;;;;;14.79;93.70;100377.13;5127119;28;20043;-62
2023/09/02 04:26:22;;;;;;;3.40;2.10;;;;;;;14.89;93.31;100387.34;5126892;28;20030;-61
2023/09/02 04:28:48;;;;;;;8.00;3.00;;;;;;;14.89;93.74;100379.50;5126836;28;20023;-62
2023/09/02 04:31:13;;;;;;;4.88;2.08;;;;;;;14.94;93.46;100375.84;5126918;28;20020;-62
2023/09/02 04:33:39;;;;;;;2.67;1.65;;;;;;;15.03;93.74;100385.19;5127104;28;20030;-61
2023/09/02 04:36:05;;;;;;;5.22;2.20;;;;;;;15.11;93.47;100385.84;5127008;28;20043;-62
2023/09/02 04:38:31;;;;;;;3.00;1.80;;;;;;;15.15;93.52;100388.38;5126902;28;20055;-62
2023/09/02 04:40:56;;;;;;;6.05;2.15;;;;;;;15.13;93.39;100377.13;5126546;28;20019;-63
2023/09/02 04:43:22;;;;;;;3.63;2.10;;;;;;;15.18;93.21;100385.66;5126896;28;20467;-63
2023/09/02 04:45:48;;;;;;;2.75;2.25;;;;;;;15.18;93.20;100381.31;5126659;28;20024;-62
2023/09/02 04:48:15;;;;;;;7.53;2.70;;;;;;;15.23;93.05;100387.28;5126917;28;20030;-62
2023/09/02 04:50:41;;;;;;;5.18;2.58;;;;;;;15.29;93.30;100383.63;5126845;28;20536;-62
2023/09/02 04:53:09;;;;;;;3.47;2.47;;;;;;;15.47;93.83;100391.84;5126918;28;20023;-64
2023/09/02 04:55:38;;;;;;;1.52;1.42;;;;;;;15.64;93.88;100399.19;5126422;28;20019;-63
2023/09/02 04:58:04;;;;;;;5.97;2.20;;;;;;;15.83;93.90;100396.88;5126229;28;20029;-62
2023/09/02 05:00:30;;;;;;;4.25;2.20;;;;;;;15.93;94.49;100399.19;5126202;28;20059;-62
2023/09/02 05:02:56;;;;;;;4.97;2.42;;;;;;;16.16;94.54;100402.88;5126634;28;20038;-62
2023/09/02 05:05:22;;;;;;;1.90;1.48;;;;;;;16.34;94.33;100407.53;5126573;28;20020;-62
2023/09/02 05:07:48;;;;;;;6.65;2.42;;;;;;;16.45;93.91;100408.97;5126784;28;20024;-62
2023/09/02 05:10:15;;;;;;;5.03;2.65;;;;;;;16.41;93.19;100416.06;5126394;28;20031;-62
2023/09/02 05:12:41;;;;;;;2.90;2.15;;;;;;;16.42;93.13;100412.50;5126460;28;20028;-61
2023/09/02 05:15:07;;;;;;;3.38;1.77;;;;;;;16.42;92.97;100412.50;5126325;28;20027;-62
2023/09/02 05:17:35;;;;;;;3.50;1.85;;;;;;;16.41;92.76;100412.56;5126198;28;20437;-61
2023/09/02 05:20:03;;;;;;;7.82;2.33;;;;;;;16.41;92.61;100412.56;5126302;28;20577;-62
2023/09/02 05:22:32;;;;;;;5.18;1.77;;;;;;;16.52;94.24;100412.25;5126139;28;20023;-62
2023/09/02 05:24:57;;;;;;;3.80;2.13;;;;;;;16.94;95.87;100411.66;5126261;28;20038;-62
2023/09/02 05:27:23;;;;;;;3.95;2.10;;;;;;;17.43;97.58;100417.84;5126145;28;20083;-62
2023/09/02 05:29:48;;;;;;;8.68;2.15;;;;;;;17.62;95.98;100411.91;5124519;28;20023;-62
2023/09/02 05:32:16;;;;;;;8.63;2.15;;;;;;;17.70;94.83;100425.59;5126021;28;20023;-61
2023/09/02 05:34:42;;;;;;;6.78;2.28;;;;;;;17.73;94.74;100425.50;5126105;28;20051;-63
2023/09/02 05:37:07;;;;;;;4.43;1.83;;;;;;;17.81;94.33;100423.41;5126032;28;20027;-62
2023/09/02 05:39:32;;;;;;;5.55;1.85;;;;;;;17.90;94.96;100411.69;5125672;28;20106;-62
2023/09/02 05:41:58;;;;;;;6.35;1.98;;;;;;;17.99;95.20;100415.72;5125980;28;20028;-63
2023/09/02 05:44:23;;;;;;;4.60;1.95;;;;;;;18.21;94.93;100421.00;5125797;28;20034;-62
2023/09/02 05:46:49;;;;;;;7.55;2.33;;;;;;;18.51;95.26;100426.84;5125669;28;20034;-62
2023/09/02 05:49:15;;;;;;;3.70;1.70;;;;;;;18.60;94.23;100420.34;5125919;28;20162;-62
2023/09/02 05:51:40;;;;;;;3.95;1.88;;;;;;;18.65;94.21;100418.38;5125769;28;20037;-62
2023/09/02 05:54:07;;;;;;;4.70;1.23;;;;;;;18.86;93.54;100415.75;5125657;28;20053;-61
2023/09/02 05:56:34;;;;;;;4.88;1.98;;;;;;;18.95;92.96;100415.34;5125691;28;20040;-62
2023/09/02 05:59:00;;;;;;;6.35;1.98;;;;;;;19.24;93.26;100418.50;5125824;28;20024;-62
2023/09/02 06:01:25;;;;;;;5.78;1.90;;;;;;;19.80;94.96;100423.00;5125336;28;20499;-62
2023/09/02 06:03:51;;;;;;;6.10;2.65;;;;;;;20.29;94.54;100418.97;5126002;28;20079;-64
2023/09/02 06:06:16;;;;;;;14.38;2.22;;;;;;;20.82;93.28;100432.16;5125502;28;20030;-63
2023/09/02 06:08:41;;;;;;;2.33;1.65;;;;;;;21.12;90.77;100417.50;5128094;28;20031;-63
2023/09/02 06:11:07;;;;;;;5.22;1.83;;;;;;;21.49;90.80;100412.88;5129749;28;20031;-63
2023/09/02 06:13:32;;;;;;;2.25;1.80;;;;;;;21.81;86.95;100421.78;5129955;28;20030;-63
2023/09/02 06:16:33;;;;;;;5.03;2.15;;;;;;;22.27;83.12;100420.94;5129568;28;20027;-63
2023/09/02 06:18:59;;;;;;;4.88;2.10;;;;;;;22.78;81.98;100425.09;5129784;27;20403;-63
2023/09/02 06:21:24;;;;;;;5.60;2.63;;;;;;;23.10;81.31;100418.81;5129647;28;20288;-62
2023/09/02 06:23:50;;;;;;;7.25;1.92;;;;;;;23.35;77.89;100423.44;5129965;28;20020;-62
2023/09/02 06:26:15;;;;;;;2.45;2.00;;;;;;;23.69;75.79;100417.81;5129743;28;20084;-63
2023/09/02 06:28:40;;;;;;;4.40;1.60;;;;;;;23.63;70.96;100420.84;5129540;28;20024;-62
2023/09/02 06:31:09;;;;;;;3.17;1.73;;;;;;;23.58;68.28;100430.94;5129270;28;20031;-63
2023/09/02 06:33:35;;;;;;;3.50;1.65;;;;;;;23.51;68.54;100427.81;5129556;28;20028;-64
2023/09/02 06:36:16;;;;;;;1.60;1.33;;;;;;;23.29;68.69;100434.41;5129413;28;20034;-62
2023/09/02 06:38:42;;;;;;;7.00;1.30;;;;;;;23.19;68.58;100431.47;5129498;28;20039;-62
2023/09/02 06:41:15;;;;;;;9.23;2.42;;;;;;;23.11;68.67;100431.09;5129264;28;20030;-63
2023/09/02 06:43:41;;;;;;;4.82;1.50;;;;;;;22.99;68.54;100438.84;5129277;28;20466;-63
2023/09/02 06:46:19;;;;;;;6.65;2.33;;;;;;;23.01;67.20;100442.25;5129189;28;20080;-62
2023/09/02 06:48:48;;;;;;;2.88;1.30;;;;;;;23.11;67.59;100431.97;5129397;28;20475;-62
2023/09/02 06:51:17;;;;;;;2.58;1.75;;;;;;;23.11;66.77;100441.69;5129148;28;20050;-62
2023/09/02 06:53:43;;;;;;;2.20;1.25;;;;;;;23.10;67.88;100432.88;5129554;28;20027;-62
2023/09/02 06:56:13;;;;;;;2.20;1.10;;;;;;;22.92;66.94;100437.53;5129095;28;20023;-63
2023/09/02 06:58:40;;;;;;;2.88;1.30;;;;;;;22.63;66.21;100445.38;5129302;28;20043;-62
2023/09/02 07:01:05;;;;;;;5.32;1.25;;;;;;;22.73;67.68;100457.13;5128617;28;20024;-62
2023/09/02 07:03:31;;;;;;;5.03;1.42;;;;;;;23.21;66.68;100457.88;5128941;28;20016;-64
2023/09/02 07:06:06;;;;;;;1.75;1.05;;;;;;;23.55;65.02;100452.31;5128787;27;20368;-64
2023/09/02 07:08:32;;;;;;;12.20;1.38;;;;;;;23.94;67.32;100450.72;5129052;28;20027;-64
2023/09/02 07:10:57;;;;;;;2.22;1.10;;;;;;;24.51;66.71;100450.59;5128602;28;20073;-64
2023/09/02 07:13:22;;;;;;;2.50;1.08;;;;;;;24.85;64.98;100460.75;5128708;28;20031;-67
2023/09/02 07:15:48;;;;;;;3.00;1.40;;;;;;;25.08;64.06;100451.22;5128456;28;20148;-62
2023/09/02 07:18:13;;;;;;;3.22;1.70;;;;;;;25.56;62.91;100457.66;5128585;28;20020;-63
2023/09/02 07:20:39;;;;;;;1.52;1.42;;;;;;;25.95;61.68;100454.91;5127461;28;20027;-61
2023/09/02 07:23:04;;;;;;;1.15;1.00;;;;;;;26.04;61.39;100453.38;5127218;28;20062;-61
2023/09/02 07:25:29;;;;;;;1.90;0.93;;;;;;;26.39;62.25;100451.75;5128342;28;20051;-62
2023/09/02 07:27:55;;;;;;;2.42;1.15;;;;;;;26.58;60.05;100450.38;5127106;28;20028;-62
2023/09/02 07:30:20;;;;;;;3.60;1.30;;;;;;;26.53;59.91;100458.72;5128470;27;20049;-63
2023/09/02 07:32:45;;;;;;;3.58;1.27;;;;;;;26.64;59.75;100451.72;5128108;28;20407;-65
2023/09/02 07:35:11;;;;;;;1.45;0.98;;;;;;;26.88;60.69;100459.66;5128657;28;20027;-67
2023/09/02 07:37:36;;;;;;;3.03;1.30;;;;;;;27.12;61.20;100471.19;5127913;28;20486;-67
2023/09/02 07:40:01;;;;;;;2.13;1.35;;;;;;;27.39;59.83;100462.84;5128173;28;20023;-65
2023/09/02 07:42:27;;;;;;;18.95;1.60;;;;;;;27.61;56.80;100479.81;5128279;28;20153;-64
2023/09/02 07:44:52;;;;;;;2.17;1.40;;;;;;;27.19;53.84;100470.59;5128090;28;20020;-62
2023/09/02 07:47:17;;;;;;;3.15;1.33;;;;;;;26.66;55.34;100461.28;5128101;28;20030;-70
2023/09/02 07:49:43;;;;;;;1.08;0.98;;;;;;;26.63;56.58;100480.13;5128044;28;20459;-66
2023/09/02 07:52:08;;;;;;;2.05;1.30;;;;;;;26.57;55.52;100478.81;5128017;28;20020;-68
2023/09/02 07:54:33;;;;;;;1.88;1.00;;;;;;;26.36;55.22;100483.91;5127991;28;20492;-70
2023/09/02 07:56:59;;;;;;;3.00;1.35;;;;;;;26.07;54.23;100493.06;5127884;28;20034;-64
2023/09/02 07:59:24;;;;;;;1.83;1.10;;;;;;;25.86;54.32;100498.16;5127575;27;20023;-63
2023/09/02 08:01:49;;;;;;;5.03;1.23;;;;;;;25.65;54.99;100497.88;5126219;28;20024;-72
2023/09/02 08:04:15;;;;;;;1.60;0.90;;;;;;;25.64;54.85;100504.97;5127788;28;20114;-60
2023/09/02 08:06:42;;;;;;;2.33;0.95;;;;;;;25.86;55.22;100488.34;5127501;28;20035;-63
2023/09/02 08:09:07;;;;;;;0.77;0.65;;;;;;;26.28;55.46;100486.28;5127647;28;20033;-62
2023/09/02 08:11:32;;;;;;;1.88;0.95;;;;;;;26.70;53.80;100492.03;5127301;28;20031;-66
2023/09/02 08:13:58;;;;;;;14.18;1.33;;;;;;;27.05;51.30;100492.13;5127484;28;20034;-63
2023/09/02 08:16:23;;;;;;;1.25;0.88;;;;;;;27.33;50.67;100493.50;5127228;28;20035;-63
2023/09/02 08:18:49;;;;;;;1.10;0.95;;;;;;;27.67;51.47;100492.66;5127363;28;20016;-64
2023/09/02 08:21:14;;;;;;;3.13;1.08;;;;;;;27.97;50.16;100495.66;5127025;28;20371;-65
2023/09/02 08:23:40;;;;;;;4.25;1.08;;;;;;;28.18;48.64;100503.72;5127156;28;20083;-53
2023/09/02 08:26:14;;;;;;;0.80;0.70;;;;;;;28.40;47.98;100499.31;5127158;28;20030;-51
2023/09/02 08:28:41;;;;;;;1.95;1.20;;;;;;;28.55;46.23;100504.34;5127305;28;20019;-51
2023/09/02 08:31:06;;;;;;;2.22;1.20;;;;;;;28.53;45.87;100496.44;5126438;28;20016;-53
2023/09/02 08:33:32;;;;;;;6.47;1.40;;;;;;;28.53;45.65;100501.78;5127059;28;20166;-52
2023/09/02 08:35:57;;;;;;;1.95;1.25;;;;;;;28.60;45.68;100502.13;5126832;28;20073;-50
2023/09/02 08:38:22;;;;;;;1.55;0.90;;;;;;;28.69;44.36;100506.69;5126713;28;20101;-48
2023/09/02 08:40:52;;;;;;;1.85;1.08;;;;;;;28.69;43.57;100505.88;5126591;28;20041;-51
2023/09/02 08:43:18;;;;;;;3.35;0.82;;;;;;;28.89;44.84;100517.53;5126710;28;20077;-63
2023/09/02 08:45:49;;;;;;;3.95;1.65;;;;;;;29.25;44.64;100521.72;5124997;28;20383;-63
2023/09/02 08:48:23;;;;;;;3.03;1.20;;;;;;;29.20;41.95;100522.94;5126960;28;20031;-63
2023/09/02 08:50:50;;;;;;;1.35;0.75;;;;;;;29.28;41.27;100526.78;5126862;28;20027;-63
2023/09/02 08:53:16;;;;;;;1.67;1.10;;;;;;;29.21;42.46;100521.13;5126803;28;20069;-63
2023/09/02 08:55:44;;;;;;;1.80;1.10;;;;;;;29.48;42.69;100518.84;5126680;28;20027;-64
2023/09/02 08:58:12;;;;;;;2.92;1.15;;;;;;;29.53;41.93;100525.50;5126772;28;20027;-63
2023/09/02 09:00:38;;;;;;;0.88;0.80;;;;;;;29.26;41.68;100532.25;5125900;28;20039;-63
2023/09/02 09:03:06;;;;;;;1.33;1.00;;;;;;;29.10;41.47;100532.72;5126517;28;20020;-64
2023/09/02 09:05:31;;;;;;;0.80;0.80;;;;;;;29.05;41.88;100535.81;5126768;28;20098;-64
2023/09/02 09:07:57;;;;;;;0.77;0.57;;;;;;;29.39;41.83;100531.19;5126533;28;20024;-64
2023/09/02 09:10:23;;;;;;;2.25;1.17;;;;;;;29.78;41.79;100531.38;5126457;28;20027;-64
2023/09/02 09:12:51;;;;;;;2.70;0.85;;;;;;;30.17;42.16;100525.25;5126468;28;20019;-63
2023/09/02 09:15:17;;;;;;;2.13;1.10;;;;;;;30.59;41.58;100515.31;5126272;28;20036;-63
2023/09/02 09:17:43;;;;;;;2.33;1.20;;;;;;;31.05;39.98;100517.38;5126086;28;20019;-62
2023/09/02 09:20:11;;;;;;;2.40;1.25;;;;;;;31.35;39.79;100520.78;5126264;28;20053;-63
2023/09/02 09:22:38;;;;;;;0.85;0.70;;;;;;;31.50;39.16;100520.34;5126099;28;20034;-64
2023/09/02 09:25:04;;;;;;;3.85;1.77;;;;;;;31.52;38.10;100518.34;5126128;28;20081;-63
2023/09/02 09:27:29;;;;;;;2.65;0.93;;;;;;;31.65;38.84;100526.91;5125966;28;20023;-64
2023/09/02 09:29:54;;;;;;;2.95;1.50;;;;;;;31.12;37.79;100529.19;5126286;28;20031;-62
2023/09/02 09:32:22;;;;;;;2.83;0.90;;;;;;;30.65;37.44;100535.31;5125792;28;20031;-62
2023/09/02 09:34:47;;;;;;;1.60;0.70;;;;;;;29.66;37.95;100546.69;5126222;28;20024;-63
2023/09/02 09:37:14;;;;;;;3.95;1.40;;;;;;;28.65;40.10;100540.00;5125944;28;20341;-63
2023/09/02 09:39:43;;;;;;;2.50;1.10;;;;;;;28.41;41.14;100546.41;5125910;28;20065;-62
2023/09/02 09:42:11;;;;;;;2.35;1.00;;;;;;;28.80;40.62;100545.03;5125505;28;20020;-62
2023/09/02 09:44:53;;;;;;;2.35;1.08;;;;;;;28.48;40.73;100556.56;5125818;28;20027;-62
2023/09/02 09:47:18;;;;;;;;;;;;;;;28.41;41.06;100562.41;5126122;28;20023;-63
2023/09/02 09:49:44;;;;;;;4.97;1.05;;;;;;;29.30;41.37;100556.88;5124686;28;20011;-64
2023/09/02 09:52:10;;;;;;;2.25;1.15;;;;;;;30.23;40.94;100563.19;5125774;28;20208;-64
2023/09/02 09:54:40;;;;;;;2.17;0.95;;;;;;;31.00;39.96;100554.47;5125642;28;20020;-63
2023/09/02 09:57:07;;;;;;;1.90;0.88;;;;;;;30.97;39.86;100558.28;5125723;28;20087;-62
2023/09/02 09:59:37;;;;;;;2.33;1.35;;;;;;;30.08;40.81;100570.75;5125551;28;20058;-63
2023/09/02 10:02:04;;;;;;;1.90;0.70;;;;;;;29.23;41.12;100561.06;5125492;28;20030;-63
2023/09/02 10:04:30;;;;;;;4.00;0.90;;;;;;;28.53;41.85;100570.38;5125830;28;20103;-63
2023/09/02 10:07:05;;;;;;;0.75;0.63;;;;;;;28.94;41.42;100573.25;5125691;28;20020;-63
2023/09/02 10:09:41;;;;;;;1.88;0.80;;;;;;;29.39;39.78;100582.84;5125835;28;20073;-63
2023/09/02 10:12:13;;;;;;;1.02;0.65;;;;;;;29.48;39.39;100575.00;5125747;28;20049;-63
2023/09/02 10:14:41;;;;;;;2.70;1.17;;;;;;;28.60;39.96;100581.38;5124149;28;20019;-62
2023/09/02 10:17:06;;;;;;;2.00;1.08;;;;;;;27.45;41.27;100576.13;5125523;28;20024;-63
2023/09/02 10:19:33;;;;;;;1.80;0.82;;;;;;;26.65;42.89;100590.03;5125556;28;20035;-63
2023/09/02 10:21:59;;;;;;;3.20;1.10;;;;;;;26.05;43.22;100600.53;5125609;28;20015;-63
2023/09/02 10:24:48;;;;;;;1.40;0.60;;;;;;;26.14;44.38;100593.69;5125807;28;20050;-63
2023/09/02 10:27:21;;;;;;;1.25;0.73;;;;;;;26.99;43.41;100589.34;5121081;28;20035;-62
2023/09/02 10:29:53;;;;;;;4.55;1.33;;;;;;;27.89;42.24;100589.66;5125239;28;20031;-63
2023/09/02 10:32:22;;;;;;;1.63;1.00;;;;;;;28.69;41.87;100592.16;5125213;28;20110;-63
2023/09/02 10:34:58;;;;;;;3.17;0.90;;;;;;;29.36;40.38;100601.84;5125416;28;20445;-64
2023/09/02 10:37:27;;;;;;;9.95;1.85;;;;;;;29.81;39.05;100602.47;5125237;28;20045;-54
2023/09/02 10:40:01;;;;;;;0.95;0.57;;;;;;;29.98;39.15;100601.00;5124864;28;20502;-60
2023/09/02 10:42:28;;;;;;;0.93;0.57;;;;;;;30.31;38.09;100600.81;5125285;28;20031;-64
2023/09/02 10:44:54;;;;;;;2.92;1.05;;;;;;;30.26;37.21;100606.59;5125233;28;20019;-63
2023/09/02 10:47:20;;;;;;;1.77;0.85;;;;;;;29.86;36.55;100604.78;5125063;28;20054;-61
2023/09/02 10:49:46;;;;;;;7.53;1.00;;;;;;;29.55;37.41;100602.91;5125102;28;20027;-63
2023/09/02 10:52:14;;;;;;;3.13;1.42;;;;;;;29.33;37.17;100599.41;5125141;28;20551;-65
2023/09/02 10:54:58;;;;;;;1.67;1.05;;;;;;;29.20;37.56;100605.78;5127167;28;20026;-65
2023/09/02 10:57:23;;;;;;;1.85;1.00;;;;;;;28.99;37.94;100600.47;5127531;28;20052;-59
2023/09/02 10:59:48;;;;;;;6.10;0.95;;;;;;;28.57;37.94;100601.19;5128974;28;20024;-53
2023/09/02 11:02:14;;;;;;;6.00;1.45;;;;;;;28.55;38.11;100612.00;5128754;28;20031;-54
2023/09/02 11:04:39;;;;;;;7.18;1.27;;;;;;;28.53;37.53;100613.13;5128813;28;20031;-51
2023/09/02 11:07:19;;;;;;;2.00;1.13;;;;;;;28.91;35.82;100614.44;5128403;28;20028;-48
2023/09/02 11:09:53;;;;;;;8.50;1.10;;;;;;;28.72;35.86;100623.13;5128374;28;20252;-50
2023/09/02 11:12:19;;;;;;;2.03;0.80;;;;;;;28.44;36.38;100612.88;5128763;28;20079;-49
2023/09/02 11:15:11;;;;;;;5.30;1.17;;;;;;;28.47;37.05;100605.59;5128330;28;20050;-53
2023/09/02 11:17:41;;;;;;;3.15;0.57;;;;;;;28.84;36.55;100607.88;5128019;28;20479;-53
2023/09/02 11:20:08;;;;;;;2.85;1.27;;;;;;;29.27;37.05;100613.28;5126848;28;20039;-53
2023/09/02 11:22:53;;;;;;;8.00;2.35;;;;;;;29.84;36.21;100612.09;5128403;28;20154;-54
2023/09/02 11:25:37;;;;;;;2.42;1.13;;;;;;;29.55;35.72;100614.44;5128428;28;20031;-52